West Lebanon, New Hampshire
Current Conditions -  °F | °C
As of 5:53 PM on Wednesday 22 Oct 2014 (Local Time) from KLEB Reporting Station
Overcast Overcast  
Wind Chill: 52°   Ceiling: 3200
Heat Index: 52°   Visibility: 9mi
Dew Point: 42°   Wind: 14mph
Humidity: 69%   Direction: 10°N
Pressure: 30.03"   Gusts: 22mph
Location:  43.65°N, 72.31°W
Report Text: KLEB 222153Z 01012G19KT 9SM OVC032 11/06 A3003 RMK AO2 RAB07E27 SLP170 P0000 T01110056
Loading
Personal Weather Stations






























Interactive Weather Map
Tropical Storm Tracking
New forecast layout! Learn more

10-Day Weather Forecast

Advertisements
Track Severe Weather on mobile